Airport View

Enter AWOS ICAO identifier for current METAR.

ex. KFNL

KAZO 191753Z 25011G21KT 3/4SM R35/P6000FT SN FEW015 BKN023 OVC033 M07/M11 A3012 RMK AO2 SLP216 P0000 60000 T10721111 11072 21100 50004

19 Jan 2020 18:31

Frequency: 127.25

Phone: 269-459-3391

Other Area AWOS: KBTL - KHAI - KIRS - KRMY

TAF KAZO 191752Z 1918/2018 25012G21KT 1SM -SHSN BR OVC020 TEMPO 1918/1919 1/2SM -SHSN FG OVC009 FM191900 31012G21KT 3SM -SHSN BR BKN025 FM192000 33011G20KT P6SM -SHSN SCT035 FM192100 34011KT P6SM SCT040 FM200000 34007KT P6SM SCT150 FM201200 01005KT P6SM BKN140